Time;durP1;ratioP1;P1;durP2;ratioP2;P2;SDS_P1;SDS_P2;PMS_P1;PMS_P2;Temp;Humidity;BMP_temperature;BMP_pressure;BME280_temperature;BME280_humidity;BME280_pressure;Samples;Min_cycle;Max_cycle;Signal;HPM_P1;HPM_P2
2022/09/04 00:00:35;;;;;;;1.67;1.60;;;14.50;99.90;;;;;;494103;241;29498;-73
2022/09/04 00:02:36;;;;;;;1.70;1.60;;;14.50;99.90;;;;;;494137;241;29269;-69
2022/09/04 00:04:37;;;;;;;2.10;2.00;;;14.50;99.90;;;;;;494110;241;29398;-70
2022/09/04 00:06:38;;;;;;;1.47;1.40;;;14.50;99.90;;;;;;493992;241;28838;-69
2022/09/04 00:08:39;;;;;;;1.73;1.63;;;14.50;99.90;;;;;;494027;238;28917;-68
2022/09/04 00:10:41;;;;;;;2.00;1.90;;;14.40;99.90;;;;;;494068;241;28554;-72
2022/09/04 00:12:42;;;;;;;1.80;1.70;;;14.40;99.90;;;;;;494066;241;28869;-69
2022/09/04 00:14:43;;;;;;;1.80;1.70;;;14.30;99.90;;;;;;494071;241;28838;-70
2022/09/04 00:16:44;;;;;;;1.80;1.70;;;14.30;99.90;;;;;;493998;241;28603;-68
2022/09/04 00:18:46;;;;;;;1.67;1.57;;;14.30;99.90;;;;;;494059;241;28906;-69
2022/09/04 00:20:47;;;;;;;1.47;1.47;;;14.40;99.90;;;;;;494043;237;28526;-70
2022/09/04 00:22:51;;;;;;;1.33;1.33;;;14.40;99.90;;;;;;493996;241;29264;-69
2022/09/04 00:24:49;;;;;;;1.97;1.87;;;14.40;99.90;;;;;;493771;241;29431;-70
2022/09/04 00:26:53;;;;;;;1.73;1.63;;;14.40;99.90;;;;;;493920;241;29266;-69
2022/09/04 00:28:52;;;;;;;1.83;1.70;;;14.40;99.90;;;;;;493913;241;29003;-69
2022/09/04 00:30:53;;;;;;;1.60;1.50;;;14.40;99.90;;;;;;494048;241;28611;-72
2022/09/04 00:32:54;;;;;;;1.83;1.73;;;14.40;99.90;;;;;;494061;241;28891;-69
2022/09/04 00:34:56;;;;;;;1.60;1.50;;;14.40;99.90;;;;;;494045;241;28923;-70
2022/09/04 00:36:57;;;;;;;1.90;1.80;;;14.40;99.90;;;;;;493997;241;28567;-68
2022/09/04 00:38:58;;;;;;;1.90;1.80;;;14.40;99.90;;;;;;494091;241;28521;-69
2022/09/04 00:40:59;;;;;;;1.53;1.43;;;14.40;99.90;;;;;;494110;241;28325;-71
2022/09/04 00:43:02;;;;;;;1.87;1.77;;;14.40;99.90;;;;;;494020;241;28952;-69
2022/09/04 00:45:03;;;;;;;1.73;1.63;;;14.40;99.90;;;;;;493998;241;28619;-70
2022/09/04 00:47:04;;;;;;;1.70;1.60;;;14.40;99.90;;;;;;494012;241;29234;-68
2022/09/04 00:49:04;;;;;;;1.80;1.70;;;14.50;99.90;;;;;;494068;241;29319;-69
2022/09/04 00:51:06;;;;;;;2.07;1.97;;;14.50;99.90;;;;;;494128;241;29071;-71
2022/09/04 00:53:08;;;;;;;1.87;1.77;;;14.50;99.90;;;;;;494020;241;28970;-69
2022/09/04 00:55:08;;;;;;;1.90;1.80;;;14.50;99.90;;;;;;493679;241;28918;-69
2022/09/04 00:57:12;;;;;;;1.90;1.80;;;14.50;99.90;;;;;;493578;241;28861;-69
2022/09/04 00:59:11;;;;;;;2.30;1.83;;;14.50;99.90;;;;;;493538;241;28376;-69
2022/09/04 01:01:12;;;;;;;2.60;2.30;;;14.50;99.90;;;;;;493894;241;28449;-70
2022/09/04 01:03:13;;;;;;;2.17;2.07;;;14.50;99.90;;;;;;493988;241;28798;-69
2022/09/04 01:05:15;;;;;;;2.00;1.70;;;14.50;99.90;;;;;;494105;241;28832;-69
2022/09/04 01:07:21;;;;;;;2.80;2.50;;;14.50;99.90;;;;;;494030;241;28463;-68
2022/09/04 01:09:17;;;;;;;2.23;2.13;;;14.50;99.90;;;;;;493626;241;28803;-69
2022/09/04 01:11:18;;;;;;;2.20;2.10;;;14.50;99.90;;;;;;494114;241;29019;-71
2022/09/04 01:13:20;;;;;;;2.20;2.10;;;14.50;99.90;;;;;;494115;241;29320;-69
2022/09/04 01:15:21;;;;;;;2.23;2.13;;;14.50;99.90;;;;;;494108;241;29553;-68
2022/09/04 01:17:23;;;;;;;2.40;2.30;;;14.50;99.90;;;;;;494033;241;29097;-68
2022/09/04 01:19:23;;;;;;;2.10;2.00;;;14.50;99.90;;;;;;494125;241;28595;-68
2022/09/04 01:21:29;;;;;;;2.07;1.90;;;14.50;99.90;;;;;;494137;241;28345;-70
2022/09/04 01:23:26;;;;;;;2.23;2.13;;;14.50;99.90;;;;;;493740;241;28502;-68
2022/09/04 01:25:27;;;;;;;1.97;1.87;;;14.60;99.90;;;;;;494111;241;28338;-69
2022/09/04 01:27:28;;;;;;;2.00;1.90;;;14.60;99.90;;;;;;494033;241;28498;-69
2022/09/04 01:29:30;;;;;;;2.23;2.10;;;14.50;99.90;;;;;;494118;241;28381;-70
2022/09/04 01:31:31;;;;;;;2.30;2.20;;;14.50;99.90;;;;;;494115;241;28402;-69
2022/09/04 01:33:32;;;;;;;2.00;1.90;;;14.50;99.90;;;;;;494130;241;28595;-69
2022/09/04 01:35:33;;;;;;;1.93;1.83;;;14.50;99.90;;;;;;493990;241;28471;-69
2022/09/04 01:37:35;;;;;;;2.20;2.00;;;14.50;99.90;;;;;;493763;241;30055;-70
2022/09/04 01:39:36;;;;;;;1.70;1.60;;;14.50;99.90;;;;;;494118;241;28955;-69
2022/09/04 01:41:37;;;;;;;1.80;1.70;;;14.40;99.90;;;;;;494098;241;28848;-70
2022/09/04 01:43:38;;;;;;;1.70;1.60;;;14.40;99.90;;;;;;494088;241;28868;-69
2022/09/04 01:45:41;;;;;;;1.97;1.87;;;14.40;99.90;;;;;;494069;241;28926;-72
2022/09/04 01:47:41;;;;;;;1.90;1.80;;;14.40;99.90;;;;;;493896;241;28423;-71
2022/09/04 01:49:42;;;;;;;1.70;1.60;;;14.40;99.90;;;;;;493934;241;28501;-69
2022/09/04 01:51:43;;;;;;;2.03;1.83;;;14.40;99.90;;;;;;493907;241;28839;-69
2022/09/04 01:53:45;;;;;;;1.90;1.80;;;14.40;99.90;;;;;;493796;241;28486;-69
2022/09/04 01:55:46;;;;;;;2.00;1.90;;;14.30;99.90;;;;;;493919;241;28941;-69
2022/09/04 01:57:48;;;;;;;2.40;2.20;;;14.30;99.90;;;;;;494009;241;28826;-71
2022/09/04 01:59:48;;;;;;;2.37;1.70;;;14.20;99.90;;;;;;494045;241;28500;-68
2022/09/04 02:01:50;;;;;;;1.90;1.80;;;14.20;99.90;;;;;;494054;241;29308;-68
2022/09/04 02:03:51;;;;;;;1.90;1.80;;;14.30;99.90;;;;;;494052;241;29007;-69
2022/09/04 02:05:53;;;;;;;1.93;1.83;;;14.30;99.90;;;;;;494059;241;28982;-69
2022/09/04 02:07:53;;;;;;;1.90;1.80;;;14.30;99.90;;;;;;493728;241;29006;-72
2022/09/04 02:09:55;;;;;;;2.10;2.00;;;14.30;99.90;;;;;;494061;241;28474;-69
2022/09/04 02:11:56;;;;;;;1.90;1.80;;;14.20;99.90;;;;;;494072;241;28389;-69
2022/09/04 02:14:03;;;;;;;1.90;1.80;;;14.20;99.90;;;;;;494075;241;28485;-69
2022/09/04 02:15:58;;;;;;;2.03;1.90;;;14.20;99.90;;;;;;493553;241;28865;-69
2022/09/04 02:18:01;;;;;;;1.90;1.80;;;14.20;99.90;;;;;;493994;241;28562;-71
2022/09/04 02:20:01;;;;;;;1.80;1.70;;;14.10;99.90;;;;;;493965;241;28620;-69
2022/09/04 02:22:02;;;;;;;1.87;1.77;;;14.10;99.90;;;;;;494110;241;28826;-70
2022/09/04 02:26:24;;;;;;;2.00;1.90;;;14.10;99.90;;;;;;485159;245;28863;-71
2022/09/04 02:28:25;;;;;;;1.77;1.67;;;14.10;99.90;;;;;;485428;245;28151;-70
2022/09/04 02:30:26;;;;;;;1.90;1.80;;;14.10;99.90;;;;;;485438;245;28604;-68
2022/09/04 02:32:28;;;;;;;1.73;1.63;;;14.00;99.90;;;;;;485436;245;28524;-70
2022/09/04 02:34:29;;;;;;;1.80;1.70;;;14.00;99.90;;;;;;485431;245;28436;-69
2022/09/04 02:36:30;;;;;;;1.63;1.53;;;14.00;99.90;;;;;;485337;245;28393;-73
2022/09/04 02:38:31;;;;;;;1.70;1.60;;;14.00;99.90;;;;;;485439;245;28765;-70
2022/09/04 02:40:33;;;;;;;1.70;1.60;;;14.00;99.90;;;;;;485437;245;28292;-70
2022/09/04 02:42:34;;;;;;;1.90;1.80;;;14.00;99.90;;;;;;485428;245;28591;-70
2022/09/04 02:44:35;;;;;;;2.13;2.03;;;14.00;99.90;;;;;;485446;245;28861;-70
2022/09/04 02:46:36;;;;;;;2.20;2.10;;;14.10;99.90;;;;;;485316;245;28970;-71
2022/09/04 02:48:39;;;;;;;2.00;1.90;;;14.10;99.90;;;;;;485432;245;28977;-70
2022/09/04 02:50:39;;;;;;;2.10;2.00;;;14.10;99.90;;;;;;485386;245;28808;-70
2022/09/04 02:52:40;;;;;;;1.70;1.60;;;14.10;99.90;;;;;;485434;245;28266;-69
2022/09/04 02:54:42;;;;;;;1.90;1.80;;;14.10;99.90;;;;;;485441;245;28295;-70
2022/09/04 02:56:43;;;;;;;1.80;1.70;;;14.10;99.90;;;;;;485228;245;28200;-72
2022/09/04 02:58:46;;;;;;;1.93;1.83;;;14.10;99.90;;;;;;485433;245;28417;-70
2022/09/04 03:00:45;;;;;;;1.80;1.70;;;14.10;99.90;;;;;;485322;245;28295;-70
2022/09/04 03:02:47;;;;;;;1.80;1.70;;;14.10;99.90;;;;;;485446;245;28372;-72
2022/09/04 03:04:48;;;;;;;1.70;1.60;;;14.10;99.90;;;;;;485456;245;28236;-70
2022/09/04 03:06:49;;;;;;;1.73;1.63;;;14.10;99.90;;;;;;485374;245;28330;-71
2022/09/04 03:08:50;;;;;;;2.10;2.00;;;14.10;99.90;;;;;;485443;245;28316;-69
2022/09/04 03:10:52;;;;;;;2.03;1.93;;;14.10;99.90;;;;;;485448;245;28924;-69
2022/09/04 03:12:53;;;;;;;3.90;2.17;;;14.10;99.90;;;;;;485435;245;29452;-69
2022/09/04 03:14:54;;;;;;;1.83;1.73;;;14.00;99.90;;;;;;485441;245;28668;-70
2022/09/04 03:16:55;;;;;;;2.07;1.97;;;14.00;99.90;;;;;;485267;245;28312;-71
2022/09/04 03:18:57;;;;;;;1.93;1.83;;;14.00;99.90;;;;;;485449;245;28208;-70
2022/09/04 03:20:59;;;;;;;1.70;1.60;;;14.10;99.90;;;;;;485435;245;28283;-69
2022/09/04 03:22:59;;;;;;;1.70;1.60;;;14.10;99.90;;;;;;485354;245;28117;-69
2022/09/04 03:25:00;;;;;;;1.97;1.87;;;14.10;99.90;;;;;;485453;245;28314;-69
2022/09/04 03:27:02;;;;;;;1.83;1.73;;;14.10;99.90;;;;;;485354;245;28250;-72
2022/09/04 03:29:03;;;;;;;1.70;1.60;;;14.10;99.90;;;;;;485450;245;28324;-69
2022/09/04 03:31:04;;;;;;;1.97;1.87;;;14.00;99.90;;;;;;485452;245;28566;-70
2022/09/04 03:33:05;;;;;;;1.87;1.63;;;14.00;99.90;;;;;;485436;245;28184;-70
2022/09/04 03:35:07;;;;;;;1.90;1.80;;;14.00;99.90;;;;;;485432;245;28702;-70
2022/09/04 03:37:08;;;;;;;2.00;1.87;;;14.00;99.90;;;;;;485389;245;28754;-71
2022/09/04 03:39:09;;;;;;;2.10;2.00;;;13.90;99.90;;;;;;485428;245;28780;-69
2022/09/04 03:41:10;;;;;;;1.93;1.83;;;13.90;99.90;;;;;;485418;245;28266;-70
2022/09/04 03:43:12;;;;;;;1.90;1.80;;;13.90;99.90;;;;;;485438;245;28333;-69
2022/09/04 03:45:13;;;;;;;2.20;2.10;;;13.90;99.90;;;;;;485444;245;28102;-69
2022/09/04 03:47:14;;;;;;;2.00;1.90;;;13.90;99.90;;;;;;485387;245;28267;-71
2022/09/04 03:49:15;;;;;;;2.23;2.07;;;13.90;99.90;;;;;;485418;245;28156;-69
2022/09/04 03:51:17;;;;;;;1.80;1.70;;;13.80;99.90;;;;;;485417;245;28335;-70
2022/09/04 03:53:19;;;;;;;2.20;2.10;;;;;;;;;;485443;245;28253;-68
2022/09/04 03:55:20;;;;;;;1.60;1.50;;;13.80;99.90;;;;;;485441;245;26402;-73
2022/09/04 03:57:21;;;;;;;2.00;1.90;;;13.80;99.90;;;;;;485285;245;28116;-69
2022/09/04 03:59:24;;;;;;;2.00;1.90;;;13.80;99.90;;;;;;485435;245;28140;-69
2022/09/04 04:01:24;;;;;;;2.03;1.93;;;13.80;99.90;;;;;;485392;245;28196;-68
2022/09/04 04:03:27;;;;;;;1.90;1.80;;;13.70;99.90;;;;;;485435;245;28164;-69
2022/09/04 04:05:26;;;;;;;1.90;1.80;;;13.70;99.90;;;;;;485341;245;28307;-73
2022/09/04 04:07:28;;;;;;;1.80;1.70;;;13.70;99.90;;;;;;485398;245;28282;-69
2022/09/04 04:09:30;;;;;;;1.90;1.80;;;13.70;99.90;;;;;;485400;245;28255;-70
2022/09/04 04:11:30;;;;;;;2.50;2.03;;;13.70;99.90;;;;;;485393;245;28092;-69
2022/09/04 04:13:32;;;;;;;1.83;1.73;;;13.70;99.90;;;;;;485433;245;28743;-69
2022/09/04 04:15:33;;;;;;;1.70;1.60;;;13.60;99.90;;;;;;485422;245;28624;-72
2022/09/04 04:17:34;;;;;;;2.03;1.93;;;13.60;99.90;;;;;;485397;245;28681;-69
2022/09/04 04:19:35;;;;;;;2.00;1.90;;;13.60;99.90;;;;;;485394;245;29008;-70
2022/09/04 04:21:37;;;;;;;2.30;2.10;;;13.60;99.90;;;;;;485455;245;28237;-69
2022/09/04 04:23:38;;;;;;;1.97;1.87;;;13.60;99.90;;;;;;485407;245;28141;-70
2022/09/04 04:25:39;;;;;;;1.60;1.50;;;13.60;99.90;;;;;;485434;245;28318;-71
2022/09/04 04:27:40;;;;;;;1.90;1.80;;;13.50;99.90;;;;;;485398;245;28219;-69
2022/09/04 04:29:42;;;;;;;1.70;1.60;;;13.60;99.90;;;;;;485451;245;28246;-70
2022/09/04 04:31:43;;;;;;;1.90;1.80;;;13.50;99.90;;;;;;485098;245;28694;-70
2022/09/04 04:33:44;;;;;;;2.00;1.90;;;13.50;99.90;;;;;;485388;245;28151;-69
2022/09/04 04:35:47;;;;;;;2.20;2.10;;;13.40;99.90;;;;;;485442;245;28330;-71
2022/09/04 04:37:49;;;;;;;1.97;1.87;;;13.40;99.90;;;;;;485323;245;28122;-69
2022/09/04 04:39:48;;;;;;;2.00;1.90;;;13.40;99.90;;;;;;485297;245;28635;-69
2022/09/04 04:42:05;;;;;;;1.83;1.73;;;;;;;;;;485455;245;28786;-69
2022/09/04 04:44:07;;;;;;;1.93;1.83;;;13.40;99.90;;;;;;485473;245;26971;-69
2022/09/04 04:46:08;;;;;;;1.90;1.80;;;13.40;99.90;;;;;;485396;245;28645;-70
2022/09/04 04:48:09;;;;;;;1.90;1.80;;;13.40;99.90;;;;;;485435;245;28767;-69
2022/09/04 04:50:10;;;;;;;1.77;1.67;;;13.30;99.90;;;;;;485411;245;28251;-70
2022/09/04 04:52:15;;;;;;;1.83;1.70;;;13.30;99.90;;;;;;485460;245;27994;-70
2022/09/04 04:54:13;;;;;;;1.90;1.80;;;13.30;99.90;;;;;;485182;245;28113;-69
2022/09/04 04:56:14;;;;;;;1.73;1.63;;;13.30;99.90;;;;;;485387;245;28151;-71
2022/09/04 04:58:15;;;;;;;2.00;1.90;;;13.30;99.90;;;;;;485418;245;28315;-69
2022/09/04 05:00:21;;;;;;;1.73;1.63;;;;;;;;;;485424;245;28236;-72
2022/09/04 05:02:20;;;;;;;2.10;2.00;;;13.40;99.90;;;;;;485255;245;27318;-69
2022/09/04 05:04:21;;;;;;;2.10;2.00;;;13.40;99.90;;;;;;485333;245;28349;-70
2022/09/04 05:06:22;;;;;;;1.80;1.70;;;13.40;99.90;;;;;;485367;245;28244;-69
2022/09/04 05:08:24;;;;;;;2.20;2.10;;;;;;;;;;485394;245;28381;-69
2022/09/04 05:10:25;;;;;;;2.17;2.07;;;13.40;99.90;;;;;;485439;245;27331;-69
2022/09/04 05:12:26;;;;;;;1.90;1.80;;;13.50;99.90;;;;;;485421;245;28687;-70
2022/09/04 05:14:28;;;;;;;1.93;1.83;;;13.50;99.90;;;;;;485424;245;28922;-69
2022/09/04 05:16:29;;;;;;;1.80;1.77;;;13.60;99.90;;;;;;485298;245;28168;-69
2022/09/04 05:18:30;;;;;;;2.17;2.07;;;13.60;99.90;;;;;;485460;245;28384;-71
2022/09/04 05:20:31;;;;;;;2.03;1.93;;;13.60;99.90;;;;;;485453;245;28194;-69
2022/09/04 05:22:33;;;;;;;2.40;2.30;;;13.60;99.90;;;;;;485449;241;28785;-69
2022/09/04 05:24:34;;;;;;;2.23;2.03;;;13.70;99.90;;;;;;485456;245;28128;-69
2022/09/04 05:26:35;;;;;;;2.43;1.83;;;13.70;99.90;;;;;;485407;245;28230;-69
2022/09/04 05:28:36;;;;;;;2.00;1.90;;;13.70;99.90;;;;;;485481;245;28268;-71
2022/09/04 05:30:38;;;;;;;2.20;2.10;;;13.70;99.90;;;;;;485408;245;28118;-69
2022/09/04 05:32:39;;;;;;;2.00;1.90;;;13.70;99.90;;;;;;485450;245;28376;-70
2022/09/04 05:34:40;;;;;;;2.90;2.10;;;13.70;99.90;;;;;;485425;245;29432;-69
2022/09/04 05:36:41;;;;;;;1.90;1.80;;;13.70;99.90;;;;;;485387;245;28802;-69
2022/09/04 05:38:43;;;;;;;2.03;1.93;;;13.70;99.90;;;;;;485464;245;28851;-71
2022/09/04 05:40:44;;;;;;;2.27;2.17;;;13.80;99.90;;;;;;485463;245;28188;-69
2022/09/04 05:42:46;;;;;;;1.90;1.80;;;13.80;99.90;;;;;;485444;245;28135;-70
2022/09/04 05:44:46;;;;;;;2.23;2.13;;;13.90;99.90;;;;;;485376;245;28152;-69
2022/09/04 05:46:48;;;;;;;2.00;1.90;;;14.00;99.90;;;;;;485405;245;28325;-70
2022/09/04 05:48:49;;;;;;;2.03;1.93;;;14.00;99.90;;;;;;485448;245;28330;-70
2022/09/04 05:50:50;;;;;;;2.30;2.20;;;14.00;99.90;;;;;;485435;245;28117;-70
2022/09/04 05:52:51;;;;;;;2.10;2.00;;;14.10;99.90;;;;;;485450;245;28389;-69
2022/09/04 05:54:53;;;;;;;2.27;2.17;;;14.00;99.90;;;;;;485459;245;28141;-69
2022/09/04 05:56:54;;;;;;;1.87;1.77;;;14.10;99.90;;;;;;485409;245;28148;-69
2022/09/04 05:58:55;;;;;;;2.13;2.03;;;14.10;99.90;;;;;;485460;245;28762;-71
2022/09/04 06:00:59;;;;;;;2.37;2.23;;;14.20;99.90;;;;;;485365;245;29250;-70
2022/09/04 06:02:58;;;;;;;2.10;2.00;;;14.20;99.90;;;;;;485292;245;28860;-70
2022/09/04 06:04:59;;;;;;;2.10;2.00;;;14.30;99.90;;;;;;485450;245;28447;-69
2022/09/04 06:07:00;;;;;;;2.50;2.00;;;14.40;99.90;;;;;;485366;245;28440;-70
2022/09/04 06:09:01;;;;;;;1.90;1.80;;;14.40;99.90;;;;;;485452;245;28383;-73
2022/09/04 06:11:03;;;;;;;2.40;2.30;;;14.50;99.90;;;;;;485431;245;28215;-69
2022/09/04 06:13:04;;;;;;;2.40;2.20;;;14.60;99.90;;;;;;485459;245;28465;-69
2022/09/04 06:15:05;;;;;;;2.03;1.93;;;14.60;99.90;;;;;;485454;245;28143;-70
2022/09/04 06:17:06;;;;;;;2.10;2.00;;;14.60;99.90;;;;;;485358;245;28497;-69
2022/09/04 06:19:08;;;;;;;2.17;1.90;;;14.70;99.90;;;;;;485437;245;28472;-70
2022/09/04 06:21:09;;;;;;;1.93;1.83;;;14.70;99.90;;;;;;485428;245;28465;-70
2022/09/04 06:23:10;;;;;;;1.90;1.80;;;14.70;99.90;;;;;;485455;245;28979;-70
2022/09/04 06:25:12;;;;;;;2.10;2.00;;;14.80;99.90;;;;;;485465;245;28821;-70
2022/09/04 06:27:13;;;;;;;1.83;1.73;;;14.80;99.90;;;;;;485395;245;29314;-70
2022/09/04 06:29:14;;;;;;;2.20;2.10;;;14.80;99.90;;;;;;485465;245;29271;-72
2022/09/04 06:31:15;;;;;;;2.60;1.93;;;14.80;99.90;;;;;;485401;245;28782;-70
2022/09/04 06:33:16;;;;;;;2.37;2.27;;;14.90;99.90;;;;;;485480;245;28798;-70
2022/09/04 06:35:18;;;;;;;1.90;1.80;;;14.90;99.90;;;;;;485478;245;28768;-70
2022/09/04 06:37:19;;;;;;;2.17;2.07;;;15.10;99.90;;;;;;485397;245;28893;-69
2022/09/04 06:39:20;;;;;;;2.00;1.80;;;15.10;99.90;;;;;;485367;245;28881;-73
2022/09/04 06:41:21;;;;;;;2.20;2.00;;;15.20;99.90;;;;;;485445;245;28535;-70
2022/09/04 06:43:24;;;;;;;2.33;2.13;;;15.20;99.90;;;;;;485355;245;28797;-70
2022/09/04 06:45:24;;;;;;;2.80;2.10;;;15.30;99.90;;;;;;485422;245;28852;-70
2022/09/04 06:47:25;;;;;;;2.10;2.00;;;15.40;99.90;;;;;;485386;245;28869;-70
2022/09/04 06:49:28;;;;;;;2.00;1.90;;;15.40;99.90;;;;;;485427;245;29276;-71
2022/09/04 06:51:28;;;;;;;1.87;1.77;;;15.40;99.90;;;;;;485401;245;29333;-71
2022/09/04 06:53:29;;;;;;;2.47;2.17;;;15.50;99.90;;;;;;485419;245;29272;-70
2022/09/04 06:55:32;;;;;;;2.10;2.00;;;15.50;99.90;;;;;;485426;245;28782;-69
2022/09/04 06:57:32;;;;;;;1.90;1.80;;;15.60;99.90;;;;;;485326;245;28802;-70
2022/09/04 06:59:33;;;;;;;2.20;2.10;;;15.70;99.90;;;;;;485440;245;28896;-70
2022/09/04 07:01:39;;;;;;;2.30;2.20;;;15.80;99.90;;;;;;485418;245;28824;-69
2022/09/04 07:03:35;;;;;;;2.00;1.90;;;15.80;99.90;;;;;;485105;245;28786;-69
2022/09/04 07:05:37;;;;;;;2.20;2.10;;;15.80;99.90;;;;;;485464;245;28809;-69
2022/09/04 07:07:38;;;;;;;2.07;1.97;;;15.80;99.90;;;;;;485396;245;28766;-69
2022/09/04 07:09:39;;;;;;;1.93;1.83;;;15.80;99.90;;;;;;485438;245;28781;-70
2022/09/04 07:11:40;;;;;;;1.90;1.80;;;15.90;99.90;;;;;;485429;245;28869;-70
2022/09/04 07:13:42;;;;;;;2.57;2.00;;;15.90;99.90;;;;;;485432;245;29274;-70
2022/09/04 07:15:43;;;;;;;1.90;1.80;;;16.00;99.90;;;;;;485434;245;29402;-73
2022/09/04 07:17:44;;;;;;;2.60;2.40;;;16.10;99.90;;;;;;485409;245;29233;-70
2022/09/04 07:19:45;;;;;;;2.37;2.27;;;16.10;99.90;;;;;;485437;245;28795;-71
2022/09/04 07:21:47;;;;;;;3.07;2.30;;;16.20;99.90;;;;;;485441;245;28876;-70
2022/09/04 07:23:48;;;;;;;2.10;2.00;;;16.20;99.90;;;;;;485432;245;28807;-70
2022/09/04 07:25:49;;;;;;;2.60;2.40;;;16.30;99.90;;;;;;485444;245;28805;-73
2022/09/04 07:27:51;;;;;;;2.50;2.40;;;16.30;99.90;;;;;;485408;245;28753;-69
2022/09/04 07:29:52;;;;;;;2.10;2.00;;;16.30;99.90;;;;;;485283;245;28847;-71
2022/09/04 07:31:53;;;;;;;2.47;2.27;;;16.30;99.90;;;;;;485396;245;28801;-69
2022/09/04 07:33:54;;;;;;;2.23;2.10;;;16.40;99.90;;;;;;485425;245;28855;-70
2022/09/04 07:35:55;;;;;;;2.50;2.30;;;16.40;99.90;;;;;;485412;245;28781;-73
2022/09/04 07:37:57;;;;;;;2.60;2.50;;;16.40;99.90;;;;;;485305;245;29291;-70
2022/09/04 07:39:58;;;;;;;2.23;2.13;;;16.40;99.90;;;;;;485371;245;29307;-70
2022/09/04 07:41:59;;;;;;;2.90;2.70;;;16.40;99.90;;;;;;485357;245;29229;-70
2022/09/04 07:44:03;;;;;;;2.30;2.20;;;16.60;99.90;;;;;;485367;245;29415;-70
2022/09/04 07:46:02;;;;;;;2.10;2.00;;;16.60;99.90;;;;;;485186;245;28895;-73
2022/09/04 07:48:04;;;;;;;3.13;2.43;;;16.70;99.90;;;;;;485302;245;28845;-69
2022/09/04 07:50:04;;;;;;;2.40;2.20;;;16.80;99.90;;;;;;485362;245;28791;-73
2022/09/04 07:52:06;;;;;;;2.70;2.50;;;16.80;99.90;;;;;;485429;245;28750;-70
2022/09/04 07:54:07;;;;;;;2.77;2.57;;;16.80;99.90;;;;;;485425;245;28801;-70
2022/09/04 07:56:08;;;;;;;5.90;2.57;;;16.80;99.90;;;;;;485419;245;29176;-74
2022/09/04 07:58:09;;;;;;;3.10;2.90;;;16.80;99.90;;;;;;485484;245;28870;-70
2022/09/04 08:00:12;;;;;;;2.33;2.23;;;16.90;99.90;;;;;;485453;245;28874;-70
2022/09/04 08:02:12;;;;;;;2.53;2.43;;;16.90;99.90;;;;;;485382;245;28747;-70
2022/09/04 08:04:13;;;;;;;2.37;2.20;;;17.00;99.90;;;;;;485443;245;29212;-70
2022/09/04 08:06:14;;;;;;;2.60;2.40;;;17.10;99.90;;;;;;485429;245;29349;-73
2022/09/04 08:08:15;;;;;;;2.60;2.40;;;17.10;99.90;;;;;;485458;245;29366;-71
2022/09/04 08:10:17;;;;;;;2.63;2.43;;;17.20;99.90;;;;;;485451;245;28829;-71
2022/09/04 08:12:18;;;;;;;2.47;2.37;;;17.20;99.90;;;;;;485434;245;28833;-70
2022/09/04 08:14:19;;;;;;;2.50;2.30;;;17.20;99.90;;;;;;485416;245;28814;-71
2022/09/04 08:16:20;;;;;;;2.30;2.20;;;17.30;99.90;;;;;;485405;245;28795;-73
2022/09/04 08:18:22;;;;;;;2.43;2.33;;;17.30;99.90;;;;;;485432;245;28767;-70
2022/09/04 08:20:23;;;;;;;2.47;2.27;;;17.30;99.90;;;;;;485123;245;28798;-69
2022/09/04 08:22:24;;;;;;;2.80;2.60;;;17.30;99.90;;;;;;485423;245;28788;-70
2022/09/04 08:24:25;;;;;;;2.83;2.63;;;17.40;99.90;;;;;;485415;245;28819;-70
2022/09/04 08:26:27;;;;;;;2.63;2.43;;;17.50;99.90;;;;;;485383;245;28877;-73
2022/09/04 08:28:32;;;;;;;3.03;2.83;;;17.60;99.90;;;;;;485408;245;29291;-70
2022/09/04 08:30:30;;;;;;;2.80;2.60;;;17.60;99.90;;;;;;485112;245;29279;-71
2022/09/04 08:32:30;;;;;;;2.60;2.40;;;17.70;99.90;;;;;;485440;245;29219;-70
2022/09/04 08:34:32;;;;;;;2.47;2.33;;;17.70;99.90;;;;;;485437;245;28870;-70
2022/09/04 08:36:33;;;;;;;2.40;2.30;;;17.80;99.90;;;;;;485403;245;28783;-74
2022/09/04 08:38:34;;;;;;;3.07;2.87;;;17.70;99.90;;;;;;485443;245;28766;-70
2022/09/04 08:40:35;;;;;;;2.40;2.30;;;17.80;99.90;;;;;;485419;245;28816;-72
2022/09/04 08:42:37;;;;;;;2.83;2.63;;;17.90;99.90;;;;;;485433;245;28815;-70
2022/09/04 08:44:38;;;;;;;2.90;2.70;;;17.90;99.90;;;;;;485402;245;28881;-70
2022/09/04 08:46:39;;;;;;;2.90;2.70;;;18.00;99.90;;;;;;485379;245;29141;-72
2022/09/04 08:48:40;;;;;;;2.40;2.30;;;18.00;99.90;;;;;;485425;245;28762;-70
2022/09/04 08:50:42;;;;;;;2.60;2.50;;;18.10;99.90;;;;;;485419;245;28787;-70
2022/09/04 08:52:43;;;;;;;2.17;2.07;;;18.10;99.90;;;;;;485415;245;29200;-70
2022/09/04 08:54:47;;;;;;;2.23;2.13;;;18.20;99.90;;;;;;485455;245;29330;-71
2022/09/04 08:56:46;;;;;;;4.50;2.40;;;18.30;99.90;;;;;;485250;245;29292;-72
2022/09/04 08:58:47;;;;;;;2.63;2.43;;;18.40;99.90;;;;;;485442;245;29288;-71
2022/09/04 09:00:48;;;;;;;7.30;3.00;;;18.40;99.90;;;;;;485419;245;28811;-71
2022/09/04 09:02:49;;;;;;;2.00;1.90;;;18.40;99.90;;;;;;485433;245;28748;-70
2022/09/04 09:04:50;;;;;;;2.00;1.90;;;18.60;99.90;;;;;;485378;245;28786;-70
2022/09/04 09:06:52;;;;;;;2.63;2.43;;;18.60;99.90;;;;;;485363;245;28866;-72
2022/09/04 09:08:53;;;;;;;2.50;2.40;;;18.70;99.90;;;;;;485398;245;28770;-70
2022/09/04 09:10:54;;;;;;;2.00;1.90;;;18.80;99.90;;;;;;485417;245;28899;-70
2022/09/04 09:12:55;;;;;;;2.30;2.20;;;18.80;99.90;;;;;;485430;245;28869;-70
2022/09/04 09:14:57;;;;;;;2.20;2.10;;;18.80;99.90;;;;;;485439;245;28793;-70
2022/09/04 09:16:58;;;;;;;3.30;3.00;;;18.80;99.90;;;;;;485385;245;29345;-71
2022/09/04 09:18:59;;;;;;;2.80;2.60;;;19.00;99.90;;;;;;485436;245;29211;-70
2022/09/04 09:21:00;;;;;;;2.70;2.60;;;19.10;99.90;;;;;;485446;245;29388;-70
2022/09/04 09:23:02;;;;;;;2.60;2.40;;;19.20;99.90;;;;;;485440;245;29350;-72
2022/09/04 09:25:03;;;;;;;2.80;2.60;;;19.30;99.90;;;;;;485443;245;28751;-70
2022/09/04 09:27:04;;;;;;;3.47;3.17;;;19.30;99.90;;;;;;485377;245;28794;-74
2022/09/04 09:29:05;;;;;;;2.60;2.50;;;19.30;99.90;;;;;;485475;245;28765;-70
2022/09/04 09:31:07;;;;;;;2.80;2.60;;;19.30;99.90;;;;;;485432;245;28799;-70
2022/09/04 09:33:08;;;;;;;2.60;2.50;;;19.30;99.90;;;;;;485472;245;28787;-70
2022/09/04 09:35:09;;;;;;;3.00;2.80;;;19.30;99.90;;;;;;485477;245;28770;-69
2022/09/04 09:37:10;;;;;;;2.50;2.40;;;19.40;99.90;;;;;;485416;245;28878;-70
2022/09/04 09:39:12;;;;;;;2.23;2.13;;;19.30;99.90;;;;;;485458;245;28850;-70
2022/09/04 09:41:13;;;;;;;2.40;2.20;;;19.30;99.90;;;;;;485452;245;28860;-70
2022/09/04 09:43:14;;;;;;;2.37;2.27;;;19.30;99.90;;;;;;485455;245;29329;-69
2022/09/04 09:45:15;;;;;;;2.20;2.10;;;19.20;99.90;;;;;;485466;245;29217;-70
2022/09/04 09:47:17;;;;;;;2.87;2.03;;;19.20;99.90;;;;;;485397;245;29306;-72
2022/09/04 09:49:18;;;;;;;1.80;1.70;;;19.20;99.90;;;;;;485448;245;28747;-70
2022/09/04 09:51:19;;;;;;;2.10;2.00;;;19.30;99.90;;;;;;485425;245;28794;-71
2022/09/04 09:53:20;;;;;;;2.30;2.10;;;19.40;99.90;;;;;;485437;245;28774;-70
2022/09/04 09:55:22;;;;;;;2.27;2.17;;;19.50;99.90;;;;;;485456;245;28825;-70
2022/09/04 09:57:23;;;;;;;2.20;2.10;;;19.60;99.90;;;;;;485377;245;28830;-72
2022/09/04 09:59:24;;;;;;;2.00;1.90;;;19.60;99.90;;;;;;485458;245;28762;-70
2022/09/04 10:01:25;;;;;;;2.13;2.00;;;19.60;99.90;;;;;;485461;245;28801;-70
2022/09/04 10:03:27;;;;;;;1.90;1.80;;;19.60;99.90;;;;;;485446;245;28817;-70
2022/09/04 10:05:28;;;;;;;2.27;2.10;;;19.70;99.90;;;;;;485447;245;28841;-70
2022/09/04 10:07:29;;;;;;;1.83;1.73;;;19.90;99.90;;;;;;485287;245;29364;-72
2022/09/04 10:09:30;;;;;;;2.10;2.00;;;20.10;99.90;;;;;;485430;245;29325;-70
2022/09/04 10:11:32;;;;;;;2.03;1.93;;;20.30;99.90;;;;;;485430;245;29582;-71
2022/09/04 10:13:33;;;;;;;2.07;1.93;;;20.50;99.90;;;;;;485449;245;28894;-70
2022/09/04 10:15:34;;;;;;;2.17;2.07;;;20.70;99.90;;;;;;485421;245;28838;-70
2022/09/04 10:17:35;;;;;;;1.80;1.70;;;20.80;99.90;;;;;;485392;245;28869;-72
2022/09/04 10:19:37;;;;;;;2.10;2.00;;;20.90;99.90;;;;;;485444;245;28873;-70
2022/09/04 10:21:38;;;;;;;1.90;1.80;;;21.00;99.90;;;;;;485421;245;28798;-71
2022/09/04 10:23:39;;;;;;;2.13;2.00;;;21.10;99.90;;;;;;485466;245;28901;-69
2022/09/04 10:25:40;;;;;;;2.33;1.90;;;21.20;99.90;;;;;;485412;245;28797;-70
2022/09/04 10:27:43;;;;;;;2.03;1.83;;;21.30;99.90;;;;;;485384;245;28868;-71
2022/09/04 10:29:43;;;;;;;2.20;2.10;;;21.10;99.90;;;;;;485380;245;28789;-70
2022/09/04 10:31:44;;;;;;;1.70;1.60;;;21.20;99.90;;;;;;485425;245;29326;-70
2022/09/04 10:33:45;;;;;;;2.07;1.97;;;21.30;99.90;;;;;;485405;245;29220;-69